sensor_id;sensor_type;location;lat;lon;timestamp;P1;P2;P0
74419;PMS5003;62855;50.718;-2.460;2023-03-07T00:02:06;19.06;16.62;
74419;PMS5003;62855;50.718;-2.460;2023-03-07T00:05:06;19.97;17.60;
74419;PMS5003;62855;50.718;-2.460;2023-03-07T00:08:06;19.97;17.60;
74419;PMS5003;62855;50.718;-2.460;2023-03-07T00:11:06;18.15;18.58;
74419;PMS5003;62855;50.718;-2.460;2023-03-07T00:14:06;17.24;16.62;
74419;PMS5003;62855;50.718;-2.460;2023-03-07T00:17:06;18.15;17.60;
74419;PMS5003;62855;50.718;-2.460;2023-03-07T00:20:06;19.06;18.58;
74419;PMS5003;62855;50.718;-2.460;2023-03-07T00:23:06;19.06;18.58;
74419;PMS5003;62855;50.718;-2.460;2023-03-07T00:26:06;19.97;20.53;
74419;PMS5003;62855;50.718;-2.460;2023-03-07T00:29:06;19.06;19.56;
74419;PMS5003;62855;50.718;-2.460;2023-03-07T00:32:06;19.06;20.53;
74419;PMS5003;62855;50.718;-2.460;2023-03-07T00:35:06;18.15;19.56;
74419;PMS5003;62855;50.718;-2.460;2023-03-07T00:38:05;18.15;18.58;
74419;PMS5003;62855;50.718;-2.460;2023-03-07T00:41:07;18.15;18.58;
74419;PMS5003;62855;50.718;-2.460;2023-03-07T00:44:05;18.15;18.58;
74419;PMS5003;62855;50.718;-2.460;2023-03-07T00:47:06;18.15;18.58;
74419;PMS5003;62855;50.718;-2.460;2023-03-07T00:50:05;17.24;17.60;
74419;PMS5003;62855;50.718;-2.460;2023-03-07T00:53:05;17.24;17.60;
74419;PMS5003;62855;50.718;-2.460;2023-03-07T00:56:06;16.34;16.62;
74419;PMS5003;62855;50.718;-2.460;2023-03-07T00:59:05;15.43;15.65;
74419;PMS5003;62855;50.718;-2.460;2023-03-07T01:02:06;16.34;16.62;
74419;PMS5003;62855;50.718;-2.460;2023-03-07T01:05:06;16.34;16.62;
74419;PMS5003;62855;50.718;-2.460;2023-03-07T01:08:06;15.43;16.62;
74419;PMS5003;62855;50.718;-2.460;2023-03-07T01:11:06;15.43;16.62;
74419;PMS5003;62855;50.718;-2.460;2023-03-07T01:14:06;16.34;17.60;
74419;PMS5003;62855;50.718;-2.460;2023-03-07T01:17:05;15.43;16.62;
74419;PMS5003;62855;50.718;-2.460;2023-03-07T01:20:06;16.34;17.60;
74419;PMS5003;62855;50.718;-2.460;2023-03-07T01:23:06;16.34;16.62;
74419;PMS5003;62855;50.718;-2.460;2023-03-07T01:26:06;16.34;17.60;
74419;PMS5003;62855;50.718;-2.460;2023-03-07T01:29:06;17.24;17.60;
74419;PMS5003;62855;50.718;-2.460;2023-03-07T01:32:06;16.34;16.62;
74419;PMS5003;62855;50.718;-2.460;2023-03-07T01:35:06;16.34;17.60;
74419;PMS5003;62855;50.718;-2.460;2023-03-07T01:38:05;18.15;18.58;
74419;PMS5003;62855;50.718;-2.460;2023-03-07T01:41:05;19.06;18.58;
74419;PMS5003;62855;50.718;-2.460;2023-03-07T01:44:11;18.15;18.58;
74419;PMS5003;62855;50.718;-2.460;2023-03-07T01:47:06;18.15;18.58;
74419;PMS5003;62855;50.718;-2.460;2023-03-07T01:50:06;17.24;17.60;
74419;PMS5003;62855;50.718;-2.460;2023-03-07T01:53:05;17.24;17.60;
74419;PMS5003;62855;50.718;-2.460;2023-03-07T01:56:05;17.24;17.60;
74419;PMS5003;62855;50.718;-2.460;2023-03-07T01:59:06;17.24;17.60;
74419;PMS5003;62855;50.718;-2.460;2023-03-07T02:02:06;18.15;18.58;
74419;PMS5003;62855;50.718;-2.460;2023-03-07T02:05:06;17.24;18.58;
74419;PMS5003;62855;50.718;-2.460;2023-03-07T02:08:06;18.15;18.58;
74419;PMS5003;62855;50.718;-2.460;2023-03-07T02:11:05;18.15;19.56;
74419;PMS5003;62855;50.718;-2.460;2023-03-07T02:14:06;19.06;19.56;
74419;PMS5003;62855;50.718;-2.460;2023-03-07T02:17:05;19.06;19.56;
74419;PMS5003;62855;50.718;-2.460;2023-03-07T02:20:12;19.06;19.56;
74419;PMS5003;62855;50.718;-2.460;2023-03-07T02:23:05;19.06;19.56;
74419;PMS5003;62855;50.718;-2.460;2023-03-07T02:26:06;18.15;19.56;
74419;PMS5003;62855;50.718;-2.460;2023-03-07T02:29:06;19.06;18.58;
74419;PMS5003;62855;50.718;-2.460;2023-03-07T02:32:06;18.15;18.58;
74419;PMS5003;62855;50.718;-2.460;2023-03-07T02:35:09;19.06;19.56;
74419;PMS5003;62855;50.718;-2.460;2023-03-07T02:38:05;17.24;17.60;
74419;PMS5003;62855;50.718;-2.460;2023-03-07T02:41:05;17.24;17.60;
74419;PMS5003;62855;50.718;-2.460;2023-03-07T02:44:06;16.34;16.62;
74419;PMS5003;62855;50.718;-2.460;2023-03-07T02:47:05;16.34;16.62;
74419;PMS5003;62855;50.718;-2.460;2023-03-07T02:50:06;19.06;18.58;
74419;PMS5003;62855;50.718;-2.460;2023-03-07T02:53:06;19.97;19.56;
74419;PMS5003;62855;50.718;-2.460;2023-03-07T02:56:06;22.69;19.56;
74419;PMS5003;62855;50.718;-2.460;2023-03-07T02:59:06;23.60;20.53;
74419;PMS5003;62855;50.718;-2.460;2023-03-07T03:02:05;21.78;18.58;
74419;PMS5003;62855;50.718;-2.460;2023-03-07T03:05:06;21.78;18.58;
74419;PMS5003;62855;50.718;-2.460;2023-03-07T03:08:05;20.87;19.56;
74419;PMS5003;62855;50.718;-2.460;2023-03-07T03:11:06;19.06;18.58;
74419;PMS5003;62855;50.718;-2.460;2023-03-07T03:14:06;18.15;17.60;
74419;PMS5003;62855;50.718;-2.460;2023-03-07T03:17:06;19.06;19.56;
74419;PMS5003;62855;50.718;-2.460;2023-03-07T03:20:06;20.87;20.53;
74419;PMS5003;62855;50.718;-2.460;2023-03-07T03:23:05;22.69;21.51;
74419;PMS5003;62855;50.718;-2.460;2023-03-07T03:26:06;23.60;20.53;
74419;PMS5003;62855;50.718;-2.460;2023-03-07T03:29:06;23.60;20.53;
74419;PMS5003;62855;50.718;-2.460;2023-03-07T03:32:06;19.97;17.60;
74419;PMS5003;62855;50.718;-2.460;2023-03-07T03:35:06;18.15;14.67;
74419;PMS5003;62855;50.718;-2.460;2023-03-07T03:38:05;20.87;18.58;
74419;PMS5003;62855;50.718;-2.460;2023-03-07T03:41:06;19.06;17.60;
74419;PMS5003;62855;50.718;-2.460;2023-03-07T03:44:05;21.78;20.53;
74419;PMS5003;62855;50.718;-2.460;2023-03-07T03:47:06;21.78;20.53;
74419;PMS5003;62855;50.718;-2.460;2023-03-07T03:50:06;21.78;20.53;
74419;PMS5003;62855;50.718;-2.460;2023-03-07T03:53:05;19.06;17.60;
74419;PMS5003;62855;50.718;-2.460;2023-03-07T03:56:07;19.06;18.58;
74419;PMS5003;62855;50.718;-2.460;2023-03-07T03:59:05;18.15;17.60;
74419;PMS5003;62855;50.718;-2.460;2023-03-07T04:02:05;19.06;18.58;
74419;PMS5003;62855;50.718;-2.460;2023-03-07T04:05:06;17.24;16.62;
74419;PMS5003;62855;50.718;-2.460;2023-03-07T04:08:06;16.34;16.62;
74419;PMS5003;62855;50.718;-2.460;2023-03-07T04:11:05;16.34;16.62;
74419;PMS5003;62855;50.718;-2.460;2023-03-07T04:14:05;14.52;14.67;
74419;PMS5003;62855;50.718;-2.460;2023-03-07T04:17:06;14.52;15.65;
74419;PMS5003;62855;50.718;-2.460;2023-03-07T04:20:06;17.24;17.60;
74419;PMS5003;62855;50.718;-2.460;2023-03-07T04:23:06;19.97;18.58;
74419;PMS5003;62855;50.718;-2.460;2023-03-07T04:26:06;23.60;21.51;
74419;PMS5003;62855;50.718;-2.460;2023-03-07T04:29:06;23.60;21.51;
74419;PMS5003;62855;50.718;-2.460;2023-03-07T04:32:05;22.69;20.53;
74419;PMS5003;62855;50.718;-2.460;2023-03-07T04:35:06;22.69;20.53;
74419;PMS5003;62855;50.718;-2.460;2023-03-07T04:38:05;20.87;19.56;
74419;PMS5003;62855;50.718;-2.460;2023-03-07T04:41:05;21.78;19.56;
74419;PMS5003;62855;50.718;-2.460;2023-03-07T04:44:05;21.78;19.56;
74419;PMS5003;62855;50.718;-2.460;2023-03-07T04:47:06;19.97;18.58;
74419;PMS5003;62855;50.718;-2.460;2023-03-07T04:50:06;19.06;18.58;
74419;PMS5003;62855;50.718;-2.460;2023-03-07T04:53:05;19.97;18.58;
74419;PMS5003;62855;50.718;-2.460;2023-03-07T04:56:06;18.15;17.60;
74419;PMS5003;62855;50.718;-2.460;2023-03-07T04:59:05;18.15;17.60;
74419;PMS5003;62855;50.718;-2.460;2023-03-07T05:02:06;18.15;17.60;
74419;PMS5003;62855;50.718;-2.460;2023-03-07T05:05:05;19.06;18.58;
74419;PMS5003;62855;50.718;-2.460;2023-03-07T05:08:05;19.97;19.56;
74419;PMS5003;62855;50.718;-2.460;2023-03-07T05:11:05;21.78;20.53;
74419;PMS5003;62855;50.718;-2.460;2023-03-07T05:14:06;22.69;20.53;
74419;PMS5003;62855;50.718;-2.460;2023-03-07T05:17:05;22.69;19.56;
74419;PMS5003;62855;50.718;-2.460;2023-03-07T05:20:06;21.78;18.58;
74419;PMS5003;62855;50.718;-2.460;2023-03-07T05:23:06;20.87;17.60;
74419;PMS5003;62855;50.718;-2.460;2023-03-07T05:26:05;19.97;17.60;
74419;PMS5003;62855;50.718;-2.460;2023-03-07T05:29:05;22.69;20.53;
74419;PMS5003;62855;50.718;-2.460;2023-03-07T05:32:06;20.87;20.53;
74419;PMS5003;62855;50.718;-2.460;2023-03-07T05:35:07;21.78;21.51;
74419;PMS5003;62855;50.718;-2.460;2023-03-07T05:38:06;24.51;21.51;
74419;PMS5003;62855;50.718;-2.460;2023-03-07T05:41:06;26.32;22.49;
74419;PMS5003;62855;50.718;-2.460;2023-03-07T05:44:06;25.41;21.51;
74419;PMS5003;62855;50.718;-2.460;2023-03-07T05:47:06;25.41;22.49;
74419;PMS5003;62855;50.718;-2.460;2023-03-07T05:50:06;24.51;23.47;
74419;PMS5003;62855;50.718;-2.460;2023-03-07T05:53:06;22.69;22.49;
74419;PMS5003;62855;50.718;-2.460;2023-03-07T05:56:06;22.69;22.49;
74419;PMS5003;62855;50.718;-2.460;2023-03-07T05:59:06;22.69;22.49;
74419;PMS5003;62855;50.718;-2.460;2023-03-07T06:02:05;21.78;21.51;
74419;PMS5003;62855;50.718;-2.460;2023-03-07T06:05:06;19.06;19.56;
74419;PMS5003;62855;50.718;-2.460;2023-03-07T06:08:05;18.15;17.60;
74419;PMS5003;62855;50.718;-2.460;2023-03-07T06:11:05;18.15;18.58;
74419;PMS5003;62855;50.718;-2.460;2023-03-07T06:14:06;17.24;18.58;
74419;PMS5003;62855;50.718;-2.460;2023-03-07T06:17:06;16.34;17.60;
74419;PMS5003;62855;50.718;-2.460;2023-03-07T06:20:06;17.24;18.58;
74419;PMS5003;62855;50.718;-2.460;2023-03-07T06:23:05;18.15;18.58;
74419;PMS5003;62855;50.718;-2.460;2023-03-07T06:26:06;17.24;18.58;
74419;PMS5003;62855;50.718;-2.460;2023-03-07T06:29:06;17.24;18.58;
74419;PMS5003;62855;50.718;-2.460;2023-03-07T06:32:06;17.24;18.58;
74419;PMS5003;62855;50.718;-2.460;2023-03-07T06:35:06;18.15;19.56;
74419;PMS5003;62855;50.718;-2.460;2023-03-07T06:38:06;18.15;19.56;
74419;PMS5003;62855;50.718;-2.460;2023-03-07T06:41:05;19.06;20.53;
74419;PMS5003;62855;50.718;-2.460;2023-03-07T06:44:05;18.15;19.56;
74419;PMS5003;62855;50.718;-2.460;2023-03-07T06:47:05;18.15;19.56;
74419;PMS5003;62855;50.718;-2.460;2023-03-07T06:50:06;17.24;18.58;
74419;PMS5003;62855;50.718;-2.460;2023-03-07T06:53:06;17.24;18.58;
74419;PMS5003;62855;50.718;-2.460;2023-03-07T06:56:05;18.15;18.58;
74419;PMS5003;62855;50.718;-2.460;2023-03-07T06:59:05;17.24;17.60;
74419;PMS5003;62855;50.718;-2.460;2023-03-07T07:02:08;17.24;17.60;
74419;PMS5003;62855;50.718;-2.460;2023-03-07T07:05:06;17.24;17.60;
74419;PMS5003;62855;50.718;-2.460;2023-03-07T07:08:05;17.24;17.60;
74419;PMS5003;62855;50.718;-2.460;2023-03-07T07:11:06;15.43;16.62;
74419;PMS5003;62855;50.718;-2.460;2023-03-07T07:14:06;15.43;15.65;
74419;PMS5003;62855;50.718;-2.460;2023-03-07T07:17:05;15.43;15.65;
74419;PMS5003;62855;50.718;-2.460;2023-03-07T07:20:06;15.43;16.62;
74419;PMS5003;62855;50.718;-2.460;2023-03-07T07:23:06;15.43;16.62;
74419;PMS5003;62855;50.718;-2.460;2023-03-07T07:26:05;15.43;16.62;
74419;PMS5003;62855;50.718;-2.460;2023-03-07T07:29:05;15.43;16.62;
74419;PMS5003;62855;50.718;-2.460;2023-03-07T07:32:06;15.43;16.62;
74419;PMS5003;62855;50.718;-2.460;2023-03-07T07:35:06;16.34;17.60;
74419;PMS5003;62855;50.718;-2.460;2023-03-07T07:38:05;16.34;17.60;
74419;PMS5003;62855;50.718;-2.460;2023-03-07T07:41:05;16.34;17.60;
74419;PMS5003;62855;50.718;-2.460;2023-03-07T07:44:05;17.24;18.58;
74419;PMS5003;62855;50.718;-2.460;2023-03-07T07:47:13;17.24;18.58;
74419;PMS5003;62855;50.718;-2.460;2023-03-07T07:50:06;17.24;18.58;
74419;PMS5003;62855;50.718;-2.460;2023-03-07T07:53:05;17.24;18.58;
74419;PMS5003;62855;50.718;-2.460;2023-03-07T07:56:05;17.24;18.58;
74419;PMS5003;62855;50.718;-2.460;2023-03-07T07:59:06;16.34;17.60;
74419;PMS5003;62855;50.718;-2.460;2023-03-07T08:02:05;16.34;17.60;
74419;PMS5003;62855;50.718;-2.460;2023-03-07T08:05:06;16.34;17.60;
74419;PMS5003;62855;50.718;-2.460;2023-03-07T08:08:06;16.34;17.60;
74419;PMS5003;62855;50.718;-2.460;2023-03-07T08:11:05;16.34;17.60;
74419;PMS5003;62855;50.718;-2.460;2023-03-07T08:14:05;16.34;17.60;
74419;PMS5003;62855;50.718;-2.460;2023-03-07T08:17:06;17.24;18.58;
74419;PMS5003;62855;50.718;-2.460;2023-03-07T08:20:06;16.34;17.60;
74419;PMS5003;62855;50.718;-2.460;2023-03-07T08:23:05;18.15;18.58;
74419;PMS5003;62855;50.718;-2.460;2023-03-07T08:26:07;16.34;17.60;
74419;PMS5003;62855;50.718;-2.460;2023-03-07T08:29:06;17.24;18.58;
74419;PMS5003;62855;50.718;-2.460;2023-03-07T08:32:06;17.24;17.60;
74419;PMS5003;62855;50.718;-2.460;2023-03-07T08:35:06;18.15;18.58;
74419;PMS5003;62855;50.718;-2.460;2023-03-07T08:38:05;18.15;18.58;
74419;PMS5003;62855;50.718;-2.460;2023-03-07T08:41:06;18.15;17.60;
74419;PMS5003;62855;50.718;-2.460;2023-03-07T08:44:06;17.24;17.60;
74419;PMS5003;62855;50.718;-2.460;2023-03-07T08:47:06;17.24;17.60;
74419;PMS5003;62855;50.718;-2.460;2023-03-07T08:50:05;17.24;17.60;
74419;PMS5003;62855;50.718;-2.460;2023-03-07T08:53:05;16.34;16.62;
74419;PMS5003;62855;50.718;-2.460;2023-03-07T08:56:06;16.34;17.60;
74419;PMS5003;62855;50.718;-2.460;2023-03-07T08:59:05;17.24;17.60;
74419;PMS5003;62855;50.718;-2.460;2023-03-07T09:02:05;18.15;17.60;
74419;PMS5003;62855;50.718;-2.460;2023-03-07T09:05:06;16.34;16.62;
74419;PMS5003;62855;50.718;-2.460;2023-03-07T09:08:06;16.34;15.65;
74419;PMS5003;62855;50.718;-2.460;2023-03-07T09:11:05;17.24;17.60;
74419;PMS5003;62855;50.718;-2.460;2023-03-07T09:14:06;18.15;17.60;
74419;PMS5003;62855;50.718;-2.460;2023-03-07T09:17:06;17.24;16.62;
74419;PMS5003;62855;50.718;-2.460;2023-03-07T09:20:06;18.15;17.60;
74419;PMS5003;62855;50.718;-2.460;2023-03-07T09:23:06;19.06;17.60;
74419;PMS5003;62855;50.718;-2.460;2023-03-07T09:26:06;18.15;17.60;
74419;PMS5003;62855;50.718;-2.460;2023-03-07T09:29:05;18.15;17.60;
74419;PMS5003;62855;50.718;-2.460;2023-03-07T09:32:05;18.15;17.60;
74419;PMS5003;62855;50.718;-2.460;2023-03-07T09:35:06;18.15;17.60;
74419;PMS5003;62855;50.718;-2.460;2023-03-07T09:38:06;19.97;19.56;
74419;PMS5003;62855;50.718;-2.460;2023-03-07T09:41:07;18.15;17.60;
74419;PMS5003;62855;50.718;-2.460;2023-03-07T09:44:07;19.97;16.62;
74419;PMS5003;62855;50.718;-2.460;2023-03-07T09:47:09;22.69;19.56;
74419;PMS5003;62855;50.718;-2.460;2023-03-07T09:50:10;24.51;20.53;
74419;PMS5003;62855;50.718;-2.460;2023-03-07T09:53:07;24.51;20.53;
74419;PMS5003;62855;50.718;-2.460;2023-03-07T09:56:07;22.69;20.53;
74419;PMS5003;62855;50.718;-2.460;2023-03-07T09:59:08;23.60;21.51;
74419;PMS5003;62855;50.718;-2.460;2023-03-07T10:02:10;23.60;22.49;
74419;PMS5003;62855;50.718;-2.460;2023-03-07T10:05:08;22.69;22.49;
74419;PMS5003;62855;50.718;-2.460;2023-03-07T10:08:05;21.78;21.51;
74419;PMS5003;62855;50.718;-2.460;2023-03-07T10:11:12;21.78;22.49;
74419;PMS5003;62855;50.718;-2.460;2023-03-07T10:14:12;20.87;21.51;
74419;PMS5003;62855;50.718;-2.460;2023-03-07T10:17:06;19.97;20.53;
74419;PMS5003;62855;50.718;-2.460;2023-03-07T10:20:10;19.06;19.56;
74419;PMS5003;62855;50.718;-2.460;2023-03-07T10:23:08;19.97;20.53;
74419;PMS5003;62855;50.718;-2.460;2023-03-07T10:26:08;19.97;20.53;
74419;PMS5003;62855;50.718;-2.460;2023-03-07T10:29:10;19.06;19.56;
74419;PMS5003;62855;50.718;-2.460;2023-03-07T10:32:11;17.24;18.58;
74419;PMS5003;62855;50.718;-2.460;2023-03-07T10:35:12;18.15;19.56;
74419;PMS5003;62855;50.718;-2.460;2023-03-07T10:38:10;19.06;18.58;
74419;PMS5003;62855;50.718;-2.460;2023-03-07T10:41:05;19.06;19.56;
74419;PMS5003;62855;50.718;-2.460;2023-03-07T10:44:07;19.97;19.56;
74419;PMS5003;62855;50.718;-2.460;2023-03-07T10:47:07;19.97;19.56;
74419;PMS5003;62855;50.718;-2.460;2023-03-07T10:50:12;19.97;19.56;
74419;PMS5003;62855;50.718;-2.460;2023-03-07T10:53:08;18.15;18.58;
74419;PMS5003;62855;50.718;-2.460;2023-03-07T10:56:08;17.24;17.60;
74419;PMS5003;62855;50.718;-2.460;2023-03-07T10:59:07;19.06;18.58;
74419;PMS5003;62855;50.718;-2.460;2023-03-07T11:05:18;18.15;18.58;
74419;PMS5003;62855;50.718;-2.460;2023-03-07T11:08:19;18.15;18.58;
74419;PMS5003;62855;50.718;-2.460;2023-03-07T11:11:05;16.34;16.62;
74419;PMS5003;62855;50.718;-2.460;2023-03-07T11:14:06;15.43;16.62;
74419;PMS5003;62855;50.718;-2.460;2023-03-07T11:17:13;16.34;17.60;
74419;PMS5003;62855;50.718;-2.460;2023-03-07T11:20:11;18.15;19.56;
74419;PMS5003;62855;50.718;-2.460;2023-03-07T11:23:12;18.15;19.56;
74419;PMS5003;62855;50.718;-2.460;2023-03-07T11:26:14;19.06;20.53;
74419;PMS5003;62855;50.718;-2.460;2023-03-07T11:29:07;18.15;19.56;
74419;PMS5003;62855;50.718;-2.460;2023-03-07T11:32:10;19.06;20.53;
74419;PMS5003;62855;50.718;-2.460;2023-03-07T11:35:06;19.06;20.53;
74419;PMS5003;62855;50.718;-2.460;2023-03-07T11:38:06;19.06;20.53;
74419;PMS5003;62855;50.718;-2.460;2023-03-07T11:41:06;19.97;21.51;
74419;PMS5003;62855;50.718;-2.460;2023-03-07T11:44:11;19.97;21.51;
74419;PMS5003;62855;50.718;-2.460;2023-03-07T11:47:11;19.06;20.53;
74419;PMS5003;62855;50.718;-2.460;2023-03-07T11:50:12;18.15;19.56;
74419;PMS5003;62855;50.718;-2.460;2023-03-07T11:53:08;19.06;19.56;
74419;PMS5003;62855;50.718;-2.460;2023-03-07T11:56:11;20.87;19.56;
74419;PMS5003;62855;50.718;-2.460;2023-03-07T11:59:13;20.87;20.53;
74419;PMS5003;62855;50.718;-2.460;2023-03-07T12:02:06;20.87;19.56;
74419;PMS5003;62855;50.718;-2.460;2023-03-07T12:05:17;20.87;19.56;
74419;PMS5003;62855;50.718;-2.460;2023-03-07T12:08:11;20.87;19.56;
74419;PMS5003;62855;50.718;-2.460;2023-03-07T12:11:10;19.06;18.58;
74419;PMS5003;62855;50.718;-2.460;2023-03-07T12:14:08;18.15;17.60;
74419;PMS5003;62855;50.718;-2.460;2023-03-07T12:17:09;19.97;19.56;
74419;PMS5003;62855;50.718;-2.460;2023-03-07T12:20:15;19.06;18.58;
74419;PMS5003;62855;50.718;-2.460;2023-03-07T12:23:08;17.24;17.60;
74419;PMS5003;62855;50.718;-2.460;2023-03-07T12:26:09;17.24;18.58;
74419;PMS5003;62855;50.718;-2.460;2023-03-07T12:29:08;16.34;16.62;
74419;PMS5003;62855;50.718;-2.460;2023-03-07T12:32:06;18.15;17.60;
74419;PMS5003;62855;50.718;-2.460;2023-03-07T12:35:07;24.51;21.51;
74419;PMS5003;62855;50.718;-2.460;2023-03-07T12:38:07;23.60;20.53;
74419;PMS5003;62855;50.718;-2.460;2023-03-07T12:41:10;23.60;20.53;
74419;PMS5003;62855;50.718;-2.460;2023-03-07T12:44:09;23.60;20.53;
74419;PMS5003;62855;50.718;-2.460;2023-03-07T12:47:09;20.87;18.58;
74419;PMS5003;62855;50.718;-2.460;2023-03-07T12:50:07;21.78;19.56;
74419;PMS5003;62855;50.718;-2.460;2023-03-07T12:53:08;19.97;18.58;
74419;PMS5003;62855;50.718;-2.460;2023-03-07T12:56:07;17.24;15.65;
74419;PMS5003;62855;50.718;-2.460;2023-03-07T12:59:07;16.34;16.62;
74419;PMS5003;62855;50.718;-2.460;2023-03-07T13:02:09;15.43;16.62;
74419;PMS5003;62855;50.718;-2.460;2023-03-07T13:05:06;14.52;15.65;
74419;PMS5003;62855;50.718;-2.460;2023-03-07T13:08:05;13.61;14.67;
74419;PMS5003;62855;50.718;-2.460;2023-03-07T13:11:14;14.52;15.65;
74419;PMS5003;62855;50.718;-2.460;2023-03-07T13:14:05;13.61;14.67;
74419;PMS5003;62855;50.718;-2.460;2023-03-07T13:17:07;13.61;14.67;
74419;PMS5003;62855;50.718;-2.460;2023-03-07T13:20:10;13.61;14.67;
74419;PMS5003;62855;50.718;-2.460;2023-03-07T13:23:25;12.71;13.69;
74419;PMS5003;62855;50.718;-2.460;2023-03-07T13:26:08;12.71;13.69;
74419;PMS5003;62855;50.718;-2.460;2023-03-07T13:29:06;11.80;12.71;
74419;PMS5003;62855;50.718;-2.460;2023-03-07T13:32:41;12.71;13.69;
74419;PMS5003;62855;50.718;-2.460;2023-03-07T13:35:05;12.71;13.69;
74419;PMS5003;62855;50.718;-2.460;2023-03-07T13:41:07;11.80;12.71;
74419;PMS5003;62855;50.718;-2.460;2023-03-07T13:44:10;13.61;14.67;
74419;PMS5003;62855;50.718;-2.460;2023-03-07T13:53:09;16.34;17.60;
74419;PMS5003;62855;50.718;-2.460;2023-03-07T13:56:08;17.24;17.60;
74419;PMS5003;62855;50.718;-2.460;2023-03-07T13:59:10;16.34;17.60;
74419;PMS5003;62855;50.718;-2.460;2023-03-07T14:02:06;16.34;16.62;
74419;PMS5003;62855;50.718;-2.460;2023-03-07T14:05:05;18.15;18.58;
74419;PMS5003;62855;50.718;-2.460;2023-03-07T14:08:06;18.15;18.58;
74419;PMS5003;62855;50.718;-2.460;2023-03-07T14:11:05;19.06;19.56;
74419;PMS5003;62855;50.718;-2.460;2023-03-07T14:14:13;19.97;19.56;
74419;PMS5003;62855;50.718;-2.460;2023-03-07T14:17:11;19.97;20.53;
74419;PMS5003;62855;50.718;-2.460;2023-03-07T14:20:08;19.97;20.53;
74419;PMS5003;62855;50.718;-2.460;2023-03-07T14:23:08;19.97;20.53;
74419;PMS5003;62855;50.718;-2.460;2023-03-07T14:26:07;19.97;20.53;
74419;PMS5003;62855;50.718;-2.460;2023-03-07T14:29:12;19.97;20.53;
74419;PMS5003;62855;50.718;-2.460;2023-03-07T14:35:05;17.24;18.58;
74419;PMS5003;62855;50.718;-2.460;2023-03-07T14:38:06;18.15;19.56;
74419;PMS5003;62855;50.718;-2.460;2023-03-07T14:41:12;17.24;18.58;
74419;PMS5003;62855;50.718;-2.460;2023-03-07T14:44:13;16.34;17.60;
74419;PMS5003;62855;50.718;-2.460;2023-03-07T14:47:10;15.43;16.62;
74419;PMS5003;62855;50.718;-2.460;2023-03-07T14:50:08;15.43;15.65;
74419;PMS5003;62855;50.718;-2.460;2023-03-07T14:53:09;16.34;16.62;
74419;PMS5003;62855;50.718;-2.460;2023-03-07T14:56:06;16.34;16.62;
74419;PMS5003;62855;50.718;-2.460;2023-03-07T14:59:06;17.24;17.60;
74419;PMS5003;62855;50.718;-2.460;2023-03-07T15:02:12;18.15;18.58;
74419;PMS5003;62855;50.718;-2.460;2023-03-07T15:05:12;19.06;18.58;
74419;PMS5003;62855;50.718;-2.460;2023-03-07T15:08:18;18.15;17.60;
74419;PMS5003;62855;50.718;-2.460;2023-03-07T15:11:06;18.15;18.58;
74419;PMS5003;62855;50.718;-2.460;2023-03-07T15:14:06;18.15;18.58;
74419;PMS5003;62855;50.718;-2.460;2023-03-07T15:17:08;17.24;17.60;
74419;PMS5003;62855;50.718;-2.460;2023-03-07T15:20:05;17.24;17.60;
74419;PMS5003;62855;50.718;-2.460;2023-03-07T15:23:06;18.15;18.58;
74419;PMS5003;62855;50.718;-2.460;2023-03-07T15:26:06;18.15;18.58;
74419;PMS5003;62855;50.718;-2.460;2023-03-07T15:29:05;18.15;18.58;
74419;PMS5003;62855;50.718;-2.460;2023-03-07T15:32:06;17.24;18.58;
74419;PMS5003;62855;50.718;-2.460;2023-03-07T15:35:13;17.24;17.60;
74419;PMS5003;62855;50.718;-2.460;2023-03-07T15:38:06;17.24;18.58;
74419;PMS5003;62855;50.718;-2.460;2023-03-07T15:44:15;19.06;18.58;
74419;PMS5003;62855;50.718;-2.460;2023-03-07T15:47:11;19.06;18.58;
74419;PMS5003;62855;50.718;-2.460;2023-03-07T15:50:18;19.06;17.60;
74419;PMS5003;62855;50.718;-2.460;2023-03-07T15:53:06;17.24;16.62;
74419;PMS5003;62855;50.718;-2.460;2023-03-07T15:56:06;15.43;14.67;
74419;PMS5003;62855;50.718;-2.460;2023-03-07T15:59:10;15.43;15.65;
74419;PMS5003;62855;50.718;-2.460;2023-03-07T16:05:06;17.24;16.62;
74419;PMS5003;62855;50.718;-2.460;2023-03-07T16:08:08;16.34;15.65;
74419;PMS5003;62855;50.718;-2.460;2023-03-07T16:11:05;17.24;16.62;
74419;PMS5003;62855;50.718;-2.460;2023-03-07T16:14:08;15.43;16.62;
74419;PMS5003;62855;50.718;-2.460;2023-03-07T16:17:08;15.43;16.62;
74419;PMS5003;62855;50.718;-2.460;2023-03-07T16:20:11;16.34;17.60;
74419;PMS5003;62855;50.718;-2.460;2023-03-07T16:23:08;18.15;19.56;
74419;PMS5003;62855;50.718;-2.460;2023-03-07T16:26:06;17.24;18.58;
74419;PMS5003;62855;50.718;-2.460;2023-03-07T16:29:05;17.24;18.58;
74419;PMS5003;62855;50.718;-2.460;2023-03-07T16:32:07;17.24;18.58;
74419;PMS5003;62855;50.718;-2.460;2023-03-07T16:35:12;18.15;19.56;
74419;PMS5003;62855;50.718;-2.460;2023-03-07T16:38:06;17.24;18.58;
74419;PMS5003;62855;50.718;-2.460;2023-03-07T16:41:09;18.15;18.58;
74419;PMS5003;62855;50.718;-2.460;2023-03-07T16:44:10;19.97;19.56;
74419;PMS5003;62855;50.718;-2.460;2023-03-07T16:47:06;19.97;19.56;
74419;PMS5003;62855;50.718;-2.460;2023-03-07T16:50:08;19.97;19.56;
74419;PMS5003;62855;50.718;-2.460;2023-03-07T16:53:06;19.06;18.58;
74419;PMS5003;62855;50.718;-2.460;2023-03-07T16:56:07;19.97;18.58;
74419;PMS5003;62855;50.718;-2.460;2023-03-07T16:59:05;19.97;19.56;
74419;PMS5003;62855;50.718;-2.460;2023-03-07T17:02:09;19.97;19.56;
74419;PMS5003;62855;50.718;-2.460;2023-03-07T17:05:08;19.06;18.58;
74419;PMS5003;62855;50.718;-2.460;2023-03-07T17:08:06;18.15;17.60;
74419;PMS5003;62855;50.718;-2.460;2023-03-07T17:11:09;19.97;20.53;
74419;PMS5003;62855;50.718;-2.460;2023-03-07T17:14:07;20.87;21.51;
74419;PMS5003;62855;50.718;-2.460;2023-03-07T17:17:06;20.87;19.56;
74419;PMS5003;62855;50.718;-2.460;2023-03-07T17:20:06;21.78;19.56;
74419;PMS5003;62855;50.718;-2.460;2023-03-07T17:23:06;21.78;18.58;
74419;PMS5003;62855;50.718;-2.460;2023-03-07T17:26:05;22.69;18.58;
74419;PMS5003;62855;50.718;-2.460;2023-03-07T17:29:06;20.87;19.56;
74419;PMS5003;62855;50.718;-2.460;2023-03-07T17:32:06;20.87;19.56;
74419;PMS5003;62855;50.718;-2.460;2023-03-07T17:35:06;19.97;18.58;
74419;PMS5003;62855;50.718;-2.460;2023-03-07T17:38:06;20.87;19.56;
74419;PMS5003;62855;50.718;-2.460;2023-03-07T17:41:05;20.87;19.56;
74419;PMS5003;62855;50.718;-2.460;2023-03-07T17:44:05;19.97;19.56;
74419;PMS5003;62855;50.718;-2.460;2023-03-07T17:47:05;19.97;18.58;
74419;PMS5003;62855;50.718;-2.460;2023-03-07T17:50:06;19.06;18.58;
74419;PMS5003;62855;50.718;-2.460;2023-03-07T17:53:06;17.24;18.58;
74419;PMS5003;62855;50.718;-2.460;2023-03-07T17:56:06;16.34;17.60;
74419;PMS5003;62855;50.718;-2.460;2023-03-07T17:59:06;17.24;18.58;
74419;PMS5003;62855;50.718;-2.460;2023-03-07T18:02:06;16.34;17.60;
74419;PMS5003;62855;50.718;-2.460;2023-03-07T18:05:06;17.24;18.58;
74419;PMS5003;62855;50.718;-2.460;2023-03-07T18:08:05;19.97;18.58;
74419;PMS5003;62855;50.718;-2.460;2023-03-07T18:11:06;19.97;18.58;